• Join FlightAware (Why Join?)
  • Login
  • US Flag 
12:38PM EST


 

Airport Tracker/Info


-or-


 

Live Flight TrackerFlight Track Log ✈ EGF3418 ✈ 11-Apr-2013 ✈ KAMA - KDFW

Flight Track Log - Related Links

Times and Time Zones

All times are in EDT time to prevent confusion due to time zone crossing. See the EGF3418 flight status page for this flight to view local times or setup timezone preferences in your user account.

Time Position Orientation Groundspeed Altitude Reporting Facility
EDT Latitude Longitude Course Direction KTS MPH feet Rate Location/Type
05:49PM 35.1571 -101.3687 104° East  Level FlightAware Approximate
05:49PM 35.2211 -101.5469 103° East 253 291 8,700  Level Albuquerque Center
05:50PM 35.1305 -101.2551 107° East  Level FlightAware Approximate
05:50PM 35.1828 -101.4664 120° Southeast 274 315 10,800  Level Albuquerque Center
05:51PM 35.1022 -101.1420 107° East  Level FlightAware Approximate
05:51PM 35.1656 -101.3747 103° East 278 320 13,400  Level Albuquerque Center
05:52PM 35.0847 -101.0259 100° East  Level FlightAware Approximate
05:52PM 35.1458 -101.2789 104° East 287 330 14,500  Level Albuquerque Center
05:53PM 35.0429 -100.9136 106° East  Level FlightAware Approximate
05:53PM 35.1164 -101.1436 105° East 335 386 15,800  Level Albuquerque Center
05:54PM 35.0728 -101.0292 115° Southeast 371 427 17,200 1,560 Climbing Albuquerque Center
05:55PM 35.0197 -100.9178 120° Southeast 380 437 19,100 1,740 Climbing Albuquerque Center
05:56PM 34.9681 -100.8053 119° Southeast 380 437 20,800 1,620 Climbing Albuquerque Center
05:57PM 34.9161 -100.6894 119° Southeast 387 445 22,500 1,560 Climbing Albuquerque Center
05:58PM 34.8617 -100.5736 120° Southeast 392 451 24,100 1,680 Climbing Albuquerque Center
05:59PM 34.7975 -100.4350 119° Southeast 393 452 26,000 1,380 Climbing Albuquerque Center
06:00PM 34.7456 -100.3233 119° Southeast 395 455 27,000 960 Climbing Albuquerque Center
06:01PM 34.6889 -100.2011 119° Southeast 408 470 28,000 960 Climbing Albuquerque Center
06:02PM 34.6297 -100.0756 120° Southeast 421 484 29,000 480 Climbing Albuquerque Center
06:03PM 34.5692 -99.9475 120° Southeast 432 497 29,000  Level Albuquerque Center
06:04PM 34.4969 -99.7997 121° Southeast 454 522 29,000  Level Fort Worth Center
06:05PM 34.4286 -99.6542 120° Southeast 478 550 29,000  Level Fort Worth Center
06:06PM 34.3603 -99.5067 119° Southeast 492 566 29,000  Level Fort Worth Center
06:07PM 34.2897 -99.3592 120° Southeast 503 579 29,000  Level Fort Worth Center
06:08PM 34.2208 -99.2144 120° Southeast 503 579 29,000 -300 Level Fort Worth Center
06:09PM 34.1578 -99.0900 121° Southeast 497 572 28,500 -960 Descending Fort Worth Center
06:10PM 34.0828 -98.9331 120° Southeast 479 551 27,100 -1,440 Descending Fort Worth Center
06:11PM 34.0156 -98.7942 120° Southeast 489 563 25,700 -1,200 Descending Fort Worth Center
06:12PM 33.9519 -98.6781 123° Southeast 470 541 24,700 -900 Descending Fort Worth Center
06:13PM 33.8803 -98.5444 123° Southeast 465 535 24,000 -360 Descending Fort Worth Center
06:14PM 33.8022 -98.4008 123° Southeast 465 535 24,000  Level Fort Worth Center
06:15PM 33.7322 -98.2703 123° Southeast 465 535 24,000 -120 Level Fort Worth Center
06:16PM 33.6600 -98.1422 124° Southeast 465 535 23,800 -1,080 Descending Fort Worth Center
06:17PM 33.5856 -98.0069 123° Southeast 475 547 21,900 -2,400 Descending Fort Worth Center
06:18PM 33.5131 -97.8769 124° Southeast 480 552 19,000 -3,120 Descending Fort Worth Center
06:19PM 33.4508 -97.7644 124° Southeast 457 526 15,700 -3,300 Descending Fort Worth Center
06:20PM 33.3822 -97.6372 123° Southeast 434 499 12,400 -2,400 Descending Fort Worth Center
06:21PM 33.3050 -97.5478 136° Southeast 400 460 11,000 -720 Descending Fort Worth Center
06:22PM 33.2383 -97.4706 136° Southeast 377 434 11,000  Level Fort Worth Center
06:23PM 33.1569 -97.3761 136° Southeast 372 428 11,000  Level Fort Worth Center
06:24PM 33.0881 -97.2969 136° Southeast 372 428 11,000  Level Fort Worth Center
06:25PM 33.0169 -97.2103 134° Southeast 350 403 11,000  Level Fort Worth Center
06:26PM 32.9542 -97.1633 148° Southeast 292 336 11,000 -660 Level Fort Worth Center
06:27PM 32.8833 -97.1686 184° South 248 285 9,700 -1,800 Descending Fort Worth Center
06:28PM 32.8186 -97.1686 180° South 235 270 7,400 -2,340 Descending Fort Worth Center